createdAt,value
2018-12-18T00:00:05.572Z,165.70
2018-12-18T00:02:33.044Z,140.67
2018-12-18T00:05:02.338Z,152.53
2018-12-18T00:07:29.742Z,155.20
2018-12-18T00:09:57.191Z,142.85
2018-12-18T00:12:24.583Z,153.07
2018-12-18T00:14:51.977Z,130.23
2018-12-18T00:17:19.388Z,138.83
2018-12-18T00:19:46.782Z,134.45
2018-12-18T00:22:14.175Z,133.20
2018-12-18T00:24:41.572Z,136.40
2018-12-18T00:27:08.997Z,130.47
2018-12-18T00:29:36.392Z,136.57
2018-12-18T00:32:03.803Z,132.63
2018-12-18T00:34:31.544Z,143.82
2018-12-18T00:36:58.947Z,126.17
2018-12-18T00:39:26.349Z,131.13
2018-12-18T00:41:55.635Z,139.50
2018-12-18T00:44:23.048Z,147.93
2018-12-18T00:46:50.444Z,135.78
2018-12-18T00:49:17.851Z,150.60
2018-12-18T00:51:45.250Z,128.30
2018-12-18T00:54:12.721Z,125.87
2018-12-18T00:56:40.114Z,148.50
2018-12-18T00:59:07.517Z,139.80
2018-12-18T01:01:34.914Z,133.10
2018-12-18T01:04:02.338Z,130.00
2018-12-18T01:06:29.734Z,142.73
2018-12-18T01:08:57.147Z,141.50
2018-12-18T01:11:24.538Z,145.47
2018-12-18T01:13:51.935Z,156.50
2018-12-18T01:16:19.325Z,139.60
2018-12-18T01:18:46.721Z,133.13
2018-12-18T01:21:14.204Z,127.27
2018-12-18T01:23:42.378Z,168.80
2018-12-18T01:26:09.856Z,160.33
2018-12-18T01:28:37.244Z,161.90
2018-12-18T01:31:04.642Z,148.13
2018-12-18T01:33:32.037Z,137.90
2018-12-18T01:35:59.428Z,136.00
2018-12-18T01:38:26.839Z,131.83
2018-12-18T01:40:54.236Z,138.27
2018-12-18T01:43:21.629Z,144.13
2018-12-18T01:45:49.030Z,135.25
2018-12-18T01:48:16.418Z,149.67
2018-12-18T01:50:43.794Z,130.87
2018-12-18T01:53:11.206Z,143.27
2018-12-18T01:55:38.604Z,126.63
2018-12-18T01:58:06.014Z,142.53
2018-12-18T02:00:33.411Z,131.55
2018-12-18T02:03:00.804Z,136.68
2018-12-18T02:05:28.198Z,148.73
2018-12-18T02:07:55.639Z,139.88
2018-12-18T02:10:23.129Z,135.52
2018-12-18T02:12:50.536Z,143.28
2018-12-18T02:15:17.928Z,161.07
2018-12-18T02:17:45.302Z,152.00
2018-12-18T02:20:12.704Z,138.62
2018-12-18T02:22:40.096Z,137.65
2018-12-18T02:25:07.487Z,126.97
2018-12-18T02:27:34.878Z,121.23
2018-12-18T02:30:02.272Z,124.27
2018-12-18T02:32:29.750Z,130.30
2018-12-18T02:34:57.156Z,135.97
2018-12-18T02:37:24.542Z,142.40
2018-12-18T02:39:51.937Z,152.27
2018-12-18T02:42:19.337Z,136.70
2018-12-18T02:44:46.729Z,135.77
2018-12-18T02:47:14.209Z,135.20
2018-12-18T02:49:41.612Z,142.75
2018-12-18T02:52:09.089Z,130.63
2018-12-18T02:54:36.574Z,151.37
2018-12-18T02:57:03.980Z,150.77
2018-12-18T02:59:31.386Z,163.20
2018-12-18T03:01:58.794Z,136.90
2018-12-18T03:04:26.200Z,151.17
2018-12-18T03:06:53.586Z,148.50
2018-12-18T03:09:20.998Z,159.70
2018-12-18T03:11:48.401Z,155.60
2018-12-18T03:14:15.815Z,153.90
2018-12-18T03:16:43.290Z,158.47
2018-12-18T03:19:10.885Z,170.53
2018-12-18T03:21:38.282Z,124.23
2018-12-18T03:24:05.671Z,144.90
2018-12-18T03:26:33.066Z,147.43
2018-12-18T03:29:00.590Z,154.30
2018-12-18T03:31:29.392Z,146.87
2018-12-18T03:33:57.021Z,135.00
2018-12-18T03:36:24.410Z,118.50
2018-12-18T03:38:51.794Z,129.93
2018-12-18T03:41:19.203Z,131.55
2018-12-18T03:43:47.343Z,146.16
2018-12-18T03:46:14.752Z,157.77
2018-12-18T03:48:42.132Z,142.90
2018-12-18T03:51:09.537Z,114.97
2018-12-18T03:53:37.010Z,142.03
2018-12-18T03:56:04.505Z,139.23
2018-12-18T03:58:31.985Z,141.63
2018-12-18T04:00:59.498Z,131.50
2018-12-18T04:03:26.898Z,130.73
2018-12-18T04:05:54.819Z,125.33
2018-12-18T04:08:22.218Z,154.97
2018-12-18T04:10:49.703Z,125.53
2018-12-18T04:13:17.128Z,132.13
2018-12-18T04:15:44.534Z,142.30
2018-12-18T04:18:11.936Z,135.68
2018-12-18T04:21:14.649Z,122.43
2018-12-18T04:23:42.059Z,139.40
2018-12-18T04:26:09.455Z,126.82
2018-12-18T04:28:36.930Z,127.67
2018-12-18T04:31:04.417Z,130.07
2018-12-18T04:33:31.816Z,133.60
2018-12-18T04:35:59.234Z,109.40
2018-12-18T04:38:26.637Z,116.63
2018-12-18T04:40:54.110Z,122.00
2018-12-18T04:43:21.514Z,124.30
2018-12-18T04:45:48.909Z,116.70
2018-12-18T04:48:16.309Z,125.72
2018-12-18T04:50:43.789Z,120.73
2018-12-18T04:53:11.267Z,101.40
2018-12-18T04:55:38.658Z,110.50
2018-12-18T04:58:06.130Z,109.10
2018-12-18T05:00:33.604Z,97.00
2018-12-18T05:03:00.991Z,112.13
2018-12-18T05:05:28.377Z,105.97
2018-12-18T05:07:55.770Z,100.10
2018-12-18T05:10:23.150Z,96.17
2018-12-18T05:12:50.547Z,119.90
2018-12-18T05:15:17.947Z,94.80
2018-12-18T05:17:45.334Z,100.40
2018-12-18T05:20:12.751Z,93.83
2018-12-18T05:22:40.215Z,105.67
2018-12-18T05:25:07.612Z,91.93
2018-12-18T05:27:35.094Z,83.93
2018-12-18T05:30:02.489Z,89.43
2018-12-18T05:32:29.964Z,77.67
2018-12-18T05:34:57.386Z,83.60
2018-12-18T05:37:24.777Z,83.13
2018-12-18T05:39:52.163Z,80.17
2018-12-18T05:42:19.560Z,85.28
2018-12-18T05:44:47.055Z,80.03
2018-12-18T05:47:14.466Z,82.77
2018-12-18T05:49:41.862Z,79.55
2018-12-18T05:52:09.330Z,83.47
2018-12-18T05:54:36.709Z,79.42
2018-12-18T05:57:04.102Z,81.70
2018-12-18T05:59:31.500Z,88.40
2018-12-18T06:01:58.931Z,78.63
2018-12-18T06:04:26.328Z,81.80
2018-12-18T06:06:53.703Z,82.10
2018-12-18T06:09:21.097Z,78.87
2018-12-18T06:11:48.487Z,77.73
2018-12-18T06:14:15.869Z,82.85
2018-12-18T06:16:43.249Z,74.93
2018-12-18T06:19:10.645Z,82.93
2018-12-18T06:21:38.047Z,78.03
2018-12-18T06:24:05.419Z,81.50
2018-12-18T06:26:32.798Z,75.20
2018-12-18T06:29:00.193Z,82.80
2018-12-18T06:31:27.598Z,82.57
2018-12-18T06:33:54.991Z,75.87
2018-12-18T06:36:22.459Z,78.57
2018-12-18T06:38:49.867Z,87.67
2018-12-18T06:41:17.250Z,77.40
2018-12-18T06:43:44.837Z,89.07
2018-12-18T06:46:12.223Z,72.97
2018-12-18T06:48:39.612Z,81.32
2018-12-18T06:51:06.997Z,79.92
2018-12-18T06:53:34.382Z,75.10
2018-12-18T06:56:01.777Z,73.60
2018-12-18T06:58:29.154Z,79.57
2018-12-18T07:00:56.539Z,71.10
2018-12-18T07:03:23.940Z,64.80
2018-12-18T07:05:51.367Z,79.67
2018-12-18T07:08:18.750Z,75.40
2018-12-18T07:10:46.139Z,77.00
2018-12-18T07:13:13.537Z,70.60
2018-12-18T07:15:40.924Z,77.30
2018-12-18T07:18:08.370Z,77.37
2018-12-18T07:20:35.722Z,75.23
2018-12-18T07:23:03.145Z,79.60
2018-12-18T07:25:30.534Z,71.10
2018-12-18T07:27:57.917Z,81.07
2018-12-18T07:30:25.369Z,74.50
2018-12-18T07:32:52.762Z,83.17
2018-12-18T07:35:23.243Z,80.63
2018-12-18T07:37:49.537Z,73.40
2018-12-18T07:40:16.949Z,80.33
2018-12-18T07:42:44.335Z,80.25
2018-12-18T07:45:11.753Z,83.53
2018-12-18T07:47:39.145Z,76.07
2018-12-18T07:50:06.542Z,70.87
2018-12-18T07:52:33.922Z,72.67
2018-12-18T07:55:01.323Z,72.00
2018-12-18T07:57:28.742Z,66.80
2018-12-18T07:59:56.121Z,67.90
2018-12-18T08:02:23.542Z,75.30
2018-12-18T08:04:50.939Z,73.17
2018-12-18T08:07:18.321Z,80.53
2018-12-18T08:09:45.713Z,82.97
2018-12-18T08:12:13.259Z,84.10
2018-12-18T08:14:40.643Z,76.90
2018-12-18T08:17:08.024Z,81.87
2018-12-18T08:19:35.406Z,90.23
2018-12-18T08:22:02.883Z,74.17
2018-12-18T08:24:30.287Z,84.67
2018-12-18T08:26:57.679Z,76.93
2018-12-18T08:29:25.075Z,77.03
2018-12-18T08:31:52.467Z,76.70
2018-12-18T08:34:19.857Z,82.60
2018-12-18T08:36:47.238Z,77.33
2018-12-18T08:39:14.710Z,75.95
2018-12-18T08:41:42.173Z,82.27
2018-12-18T08:44:09.558Z,77.33
2018-12-18T08:46:36.954Z,83.55
2018-12-18T08:49:04.356Z,86.37
2018-12-18T08:51:31.750Z,92.73
2018-12-18T08:53:59.133Z,90.17
2018-12-18T08:56:26.530Z,80.65
2018-12-18T08:58:53.927Z,89.80
2018-12-18T09:01:21.346Z,84.63
2018-12-18T09:03:48.989Z,80.47
2018-12-18T09:06:16.408Z,95.70
2018-12-18T09:08:43.898Z,88.30
2018-12-18T09:11:11.268Z,94.60
2018-12-18T09:13:38.671Z,84.70
2018-12-18T09:16:07.953Z,87.53
2018-12-18T09:18:35.362Z,92.55
2018-12-18T09:21:02.735Z,85.92
2018-12-18T09:23:30.132Z,86.05
2018-12-18T09:25:57.585Z,91.03
2018-12-18T09:28:24.970Z,85.43
2018-12-18T09:30:52.388Z,91.90
2018-12-18T09:33:19.775Z,82.17
2018-12-18T09:35:49.853Z,72.43
2018-12-18T09:41:25.953Z,85.77
2018-12-18T09:43:55.230Z,72.60
2018-12-18T09:46:23.023Z,82.57
2018-12-18T09:48:50.422Z,89.40
2018-12-18T09:51:17.889Z,76.40
2018-12-18T09:53:46.391Z,78.37
2018-12-18T09:56:13.794Z,87.45
2018-12-18T09:58:41.165Z,78.93
2018-12-18T10:01:08.782Z,73.00
2018-12-18T10:03:36.181Z,69.97
2018-12-18T10:06:03.603Z,73.47
2018-12-18T10:08:30.972Z,67.00
2018-12-18T10:10:58.366Z,68.20
2018-12-18T10:13:25.874Z,65.30
2018-12-18T10:15:53.277Z,62.90
2018-12-18T10:18:20.668Z,54.90
2018-12-18T10:20:48.042Z,60.67
2018-12-18T10:23:15.429Z,63.83
2018-12-18T10:25:42.939Z,51.93
2018-12-18T10:28:10.313Z,54.53
2018-12-18T10:30:37.712Z,52.70
2018-12-18T10:33:05.387Z,53.90
2018-12-18T10:35:36.648Z,59.23
2018-12-18T10:38:02.147Z,56.40
2018-12-18T10:40:29.543Z,60.43
2018-12-18T10:42:56.922Z,62.50
2018-12-18T10:45:24.527Z,57.57
2018-12-18T10:47:51.910Z,65.03
2018-12-18T10:50:19.304Z,62.78
2018-12-18T10:52:46.710Z,60.83
2018-12-18T10:55:14.096Z,58.20
2018-12-18T10:57:41.498Z,64.55
2018-12-18T11:00:11.688Z,68.57
2018-12-18T11:02:39.109Z,63.33
2018-12-18T11:05:06.521Z,70.93
2018-12-18T11:07:33.903Z,63.93
2018-12-18T11:10:01.381Z,74.10
2018-12-18T11:12:34.567Z,66.87
2018-12-18T11:15:01.955Z,76.63
2018-12-18T11:17:29.335Z,67.00
2018-12-18T11:19:56.722Z,70.67
2018-12-18T11:22:24.116Z,71.67
2018-12-18T11:24:51.509Z,71.10
2018-12-18T11:27:18.895Z,71.53
2018-12-18T11:29:46.292Z,73.10
2018-12-18T11:32:13.687Z,76.87
2018-12-18T11:34:41.089Z,66.62
2018-12-18T11:37:08.564Z,68.40
2018-12-18T11:39:36.050Z,72.30
2018-12-18T11:42:03.422Z,61.10
2018-12-18T11:44:30.806Z,61.47
2018-12-18T11:46:58.218Z,69.50
2018-12-18T11:49:25.596Z,59.63
2018-12-18T11:51:53.077Z,74.87
2018-12-18T11:54:20.462Z,68.70
2018-12-18T11:56:47.851Z,75.83
2018-12-18T11:59:15.413Z,73.00
2018-12-18T12:01:42.936Z,71.90
2018-12-18T12:04:10.326Z,67.40
2018-12-18T12:06:37.726Z,72.03
2018-12-18T12:09:06.107Z,70.37
2018-12-18T12:11:33.660Z,63.73
2018-12-18T12:14:01.117Z,62.47
2018-12-18T12:16:28.504Z,74.90
2018-12-18T12:18:55.882Z,71.87
2018-12-18T12:21:23.282Z,75.42
2018-12-18T12:23:50.690Z,63.52
2018-12-18T12:26:23.605Z,66.83
2018-12-18T12:28:50.993Z,70.70
2018-12-18T12:31:18.448Z,70.70
2018-12-18T12:33:46.250Z,80.45
2018-12-18T12:36:13.638Z,69.37
2018-12-18T12:38:41.121Z,77.10
2018-12-18T12:41:08.505Z,76.95
2018-12-18T12:43:35.898Z,66.40
2018-12-18T12:46:03.325Z,75.83
2018-12-18T12:51:34.514Z,67.87
2018-12-18T12:54:01.904Z,74.63
2018-12-18T12:56:29.375Z,69.80
2018-12-18T12:58:56.770Z,67.57
2018-12-18T13:01:24.191Z,66.67
2018-12-18T13:03:51.642Z,55.80
2018-12-18T13:06:19.009Z,63.80
2018-12-18T13:08:46.461Z,51.67
2018-12-18T13:11:13.833Z,53.07
2018-12-18T13:13:41.235Z,56.43
2018-12-18T13:16:08.635Z,51.65
2018-12-18T13:18:36.020Z,55.60
2018-12-18T13:21:03.394Z,56.20
2018-12-18T13:23:30.780Z,61.10
2018-12-18T13:25:58.171Z,54.77
2018-12-18T13:28:25.578Z,54.70
2018-12-18T13:30:52.996Z,56.40
2018-12-18T13:33:20.382Z,55.53
2018-12-18T13:35:47.778Z,56.15
2018-12-18T13:38:15.269Z,52.37
2018-12-18T13:40:42.745Z,51.90
2018-12-18T13:43:10.147Z,48.58
2018-12-18T13:45:37.535Z,49.20
2018-12-18T13:48:04.995Z,57.73
2018-12-18T13:50:32.386Z,43.67
2018-12-18T13:52:59.875Z,41.60
2018-12-18T13:55:27.242Z,43.40
2018-12-18T13:57:54.647Z,35.37
2018-12-18T14:00:22.043Z,38.23
2018-12-18T14:02:49.445Z,37.70
2018-12-18T14:05:16.849Z,45.87
2018-12-18T14:07:44.279Z,34.40
2018-12-18T14:10:11.749Z,39.48
2018-12-18T14:12:39.209Z,34.30
2018-12-18T14:15:06.902Z,39.80
2018-12-18T14:17:34.305Z,39.20
2018-12-18T14:20:01.741Z,35.40
2018-12-18T14:22:29.206Z,38.77
2018-12-18T14:24:56.599Z,42.17
2018-12-18T14:27:23.999Z,41.13
2018-12-18T14:29:51.465Z,29.90
2018-12-18T14:32:18.855Z,33.00
2018-12-18T14:34:46.250Z,31.62
2018-12-18T14:37:13.647Z,34.50
2018-12-18T14:39:41.034Z,35.87
2018-12-18T14:42:08.438Z,34.13
2018-12-18T14:44:35.811Z,33.90
2018-12-18T14:47:03.194Z,34.40
2018-12-18T14:49:30.591Z,41.67
2018-12-18T14:51:57.979Z,34.83
2018-12-18T14:54:25.638Z,33.77
2018-12-18T14:56:53.043Z,37.33
2018-12-18T14:59:20.547Z,35.57
2018-12-18T15:01:48.998Z,38.48
2018-12-18T15:04:16.391Z,36.77
2018-12-18T15:06:43.775Z,32.78
2018-12-18T15:09:11.167Z,35.92
2018-12-18T15:11:38.568Z,33.75
2018-12-18T15:14:06.025Z,35.95
2018-12-18T15:16:33.436Z,37.05
2018-12-18T15:19:00.906Z,43.13
2018-12-18T15:21:28.300Z,37.70
2018-12-18T15:23:55.711Z,37.85
2018-12-18T15:26:23.163Z,34.25
2018-12-18T15:28:50.526Z,38.60
2018-12-18T15:31:17.909Z,31.93
2018-12-18T15:33:46.279Z,34.18
2018-12-18T15:36:13.701Z,30.53
2018-12-18T15:38:41.083Z,33.30
2018-12-18T15:41:08.465Z,31.27
2018-12-18T15:43:35.853Z,30.33
2018-12-18T15:46:03.324Z,26.80
2018-12-18T15:48:30.706Z,29.30
2018-12-18T15:50:58.090Z,30.47
2018-12-18T15:53:25.470Z,31.50
2018-12-18T15:55:52.857Z,30.63
2018-12-18T15:58:20.249Z,34.70
2018-12-18T16:00:47.634Z,28.57
2018-12-18T16:03:15.022Z,30.23
2018-12-18T16:05:42.428Z,26.07
2018-12-18T16:08:09.836Z,31.10
2018-12-18T16:10:37.211Z,30.13
2018-12-18T16:13:04.712Z,24.80
2018-12-18T16:15:32.092Z,22.63
2018-12-18T16:17:59.484Z,24.33
2018-12-18T16:20:26.864Z,23.62
2018-12-18T16:22:54.243Z,30.13
2018-12-18T16:25:21.646Z,21.10
2018-12-18T16:27:49.052Z,21.70
2018-12-18T16:30:16.450Z,27.90
2018-12-18T16:32:43.836Z,21.53
2018-12-18T16:35:11.213Z,19.33
2018-12-18T16:37:38.607Z,26.10
2018-12-18T16:40:06.109Z,20.75
2018-12-18T16:42:33.497Z,24.90
2018-12-18T16:45:00.902Z,24.95
2018-12-18T16:47:28.297Z,25.90
2018-12-18T16:49:55.762Z,27.58
2018-12-18T16:52:23.151Z,21.90
2018-12-18T16:54:50.550Z,25.40
2018-12-18T16:57:17.945Z,24.70
2018-12-18T16:59:45.343Z,29.37
2018-12-18T17:02:12.747Z,24.57
2018-12-18T17:04:40.157Z,21.53
2018-12-18T17:07:07.570Z,18.73
2018-12-18T17:09:34.991Z,17.73
2018-12-18T17:12:02.385Z,18.30
2018-12-18T17:14:29.781Z,18.73
2018-12-18T17:16:57.169Z,22.60
2018-12-18T17:19:24.620Z,21.70
2018-12-18T17:21:51.998Z,19.13
2018-12-18T17:24:19.395Z,27.20
2018-12-18T17:26:46.789Z,21.67
2018-12-18T17:29:14.174Z,22.63
2018-12-18T17:31:41.572Z,19.73
2018-12-18T17:34:08.987Z,23.60
2018-12-18T17:36:37.120Z,20.00
2018-12-18T17:39:06.539Z,19.60
2018-12-18T17:41:33.922Z,23.07
2018-12-18T17:44:01.313Z,22.37
2018-12-18T17:46:28.771Z,25.17
2018-12-18T17:48:56.219Z,22.15
2018-12-18T17:51:23.607Z,22.13
2018-12-18T17:53:51.044Z,21.07
2018-12-18T17:56:18.439Z,23.20
2018-12-18T17:58:45.812Z,26.20
2018-12-18T18:01:13.355Z,28.13
2018-12-18T18:03:40.740Z,20.07
2018-12-18T18:06:08.160Z,21.93
2018-12-18T18:08:35.550Z,21.57
2018-12-18T18:11:03.651Z,24.70
2018-12-18T18:13:31.157Z,21.03
2018-12-18T18:15:58.585Z,25.30
2018-12-18T18:18:25.972Z,27.35
2018-12-18T18:20:53.832Z,26.53
2018-12-18T18:23:21.439Z,22.13
2018-12-18T18:25:51.847Z,26.43
2018-12-18T18:28:19.248Z,21.77
2018-12-18T18:30:46.625Z,30.90
2018-12-18T18:33:14.026Z,24.17
2018-12-18T18:35:41.414Z,27.23
2018-12-18T18:38:08.792Z,24.25
2018-12-18T18:40:36.251Z,24.67
2018-12-18T18:43:03.634Z,24.87
2018-12-18T18:45:31.052Z,28.83
2018-12-18T18:47:58.439Z,24.55
2018-12-18T18:50:25.837Z,24.37
2018-12-18T18:52:53.227Z,26.37
2018-12-18T18:55:20.623Z,27.83
2018-12-18T18:57:48.021Z,25.33
2018-12-18T19:00:15.421Z,33.37
2018-12-18T19:02:42.814Z,24.00
2018-12-18T19:05:10.241Z,25.17
2018-12-18T19:07:37.615Z,29.55
2018-12-18T19:10:06.217Z,30.23
2018-12-18T19:12:33.683Z,22.43
2018-12-18T19:15:01.155Z,21.07
2018-12-18T19:17:28.655Z,27.30
2018-12-18T19:19:56.048Z,35.93
2018-12-18T19:22:23.436Z,21.52
2018-12-18T19:24:50.831Z,23.73
2018-12-18T19:27:18.221Z,20.20
2018-12-18T19:29:45.599Z,30.53
2018-12-18T19:32:13.024Z,24.43
2018-12-18T19:34:40.406Z,24.17
2018-12-18T19:37:07.778Z,21.23
2018-12-18T19:39:35.259Z,20.63
2018-12-18T19:42:02.646Z,17.13
2018-12-18T19:44:30.692Z,19.87
2018-12-18T19:46:58.074Z,21.67
2018-12-18T19:49:25.485Z,19.10
2018-12-18T19:51:52.863Z,20.77
2018-12-18T19:54:20.257Z,24.55
2018-12-18T19:56:47.741Z,20.23
2018-12-18T19:59:15.122Z,21.17
2018-12-18T20:01:42.517Z,17.00
2018-12-18T20:04:09.919Z,23.37
2018-12-18T20:06:37.328Z,29.98
2018-12-18T20:09:06.354Z,25.05
2018-12-18T20:11:33.767Z,25.90
2018-12-18T20:14:01.176Z,22.30
2018-12-18T20:16:28.562Z,33.42
2018-12-18T20:18:55.980Z,31.57
2018-12-18T20:21:23.385Z,31.73
2018-12-18T20:23:50.775Z,27.73
2018-12-18T20:26:18.176Z,28.83
2018-12-18T20:28:45.567Z,30.97
2018-12-18T20:31:12.975Z,33.57
2018-12-18T20:33:40.367Z,33.08
2018-12-18T20:36:07.756Z,40.93
2018-12-18T20:38:35.150Z,37.77
2018-12-18T20:41:02.554Z,39.47
2018-12-18T20:43:29.943Z,45.38
2018-12-18T20:45:57.363Z,48.40
2018-12-18T20:48:24.755Z,41.13
2018-12-18T20:50:52.151Z,50.27
2018-12-18T20:53:19.642Z,46.53
2018-12-18T20:55:47.054Z,40.83
2018-12-18T20:58:14.442Z,46.00
2018-12-18T21:00:41.860Z,41.25
2018-12-18T21:03:09.308Z,43.53
2018-12-18T21:05:36.793Z,43.97
2018-12-18T21:08:04.230Z,42.50
2018-12-18T21:10:31.619Z,40.63
2018-12-18T21:16:03.923Z,48.40
2018-12-18T21:18:31.340Z,45.97
2018-12-18T21:20:58.827Z,40.33
2018-12-18T21:23:26.219Z,40.73
2018-12-18T21:25:53.619Z,41.10
2018-12-18T21:28:21.032Z,47.93
2018-12-18T21:30:48.461Z,37.53
2018-12-18T21:33:15.872Z,40.63
2018-12-18T21:35:43.355Z,34.73
2018-12-18T21:38:10.789Z,32.42
2018-12-18T21:40:39.067Z,39.67
2018-12-18T21:43:06.634Z,35.00
2018-12-18T21:45:34.045Z,34.13
2018-12-18T21:48:01.449Z,35.23
2018-12-18T21:50:28.854Z,41.43
2018-12-18T21:52:56.267Z,35.50
2018-12-18T21:55:23.678Z,36.70
2018-12-18T21:57:51.081Z,39.33
2018-12-18T22:00:18.486Z,41.55
2018-12-18T22:02:45.878Z,35.20
2018-12-18T22:05:13.275Z,38.90
2018-12-18T22:07:40.689Z,40.80
2018-12-18T22:10:08.066Z,37.20
2018-12-18T22:12:35.454Z,33.60
2018-12-18T22:15:02.962Z,34.87
2018-12-18T22:17:30.360Z,41.25
2018-12-18T22:19:57.766Z,37.93
2018-12-18T22:22:25.194Z,36.80
2018-12-18T22:24:52.608Z,52.63
2018-12-18T22:27:20.000Z,33.80
2018-12-18T22:29:47.413Z,36.55
2018-12-18T22:32:14.797Z,34.03
2018-12-18T22:34:42.221Z,34.67
2018-12-18T22:37:09.685Z,39.47
2018-12-18T22:39:37.075Z,32.33
2018-12-18T22:42:04.465Z,40.97
2018-12-18T22:44:31.880Z,43.00
2018-12-18T22:46:59.292Z,40.05
2018-12-18T22:49:26.676Z,39.90
2018-12-18T22:51:54.071Z,31.70
2018-12-18T22:54:21.480Z,36.53
2018-12-18T22:56:48.874Z,39.35
2018-12-18T22:59:16.284Z,34.27
2018-12-18T23:01:45.060Z,36.77
2018-12-18T23:04:13.666Z,37.77
2018-12-18T23:06:41.100Z,37.47
2018-12-18T23:09:10.413Z,40.52
2018-12-18T23:11:37.814Z,39.45
2018-12-18T23:14:05.233Z,36.10
2018-12-18T23:16:32.626Z,38.57
2018-12-18T23:19:00.034Z,34.30
2018-12-18T23:21:27.450Z,35.30
2018-12-18T23:23:54.855Z,41.03
2018-12-18T23:26:22.248Z,35.57
2018-12-18T23:28:49.668Z,36.85
2018-12-18T23:31:17.066Z,41.07
2018-12-18T23:33:44.476Z,35.90
2018-12-18T23:36:11.941Z,38.90
2018-12-18T23:38:39.353Z,39.87
2018-12-18T23:41:06.830Z,39.57
2018-12-18T23:43:34.222Z,38.03
2018-12-18T23:46:01.636Z,35.52
2018-12-18T23:48:29.052Z,40.40
2018-12-18T23:50:56.583Z,28.43
2018-12-18T23:53:24.028Z,39.85
2018-12-18T23:55:51.430Z,35.30
2018-12-18T23:58:18.830Z,31.33
